createdAt,value
2022-08-22T00:03:02.139Z,100219.55
2022-08-22T00:06:24.572Z,100218.25
2022-08-22T00:10:05.063Z,100213.67
2022-08-22T00:18:54.450Z,100211.08
2022-08-22T00:22:05.534Z,100212.42
2022-08-22T00:25:24.880Z,100218.38
2022-08-22T00:33:59.041Z,100214.48
2022-08-22T00:36:47.817Z,100212.27
2022-08-22T00:39:38.173Z,100208.91
2022-08-22T00:43:10.775Z,100210.84
2022-08-22T00:46:54.374Z,100211.14
2022-08-22T00:49:41.641Z,100210.41
2022-08-22T00:52:26.418Z,100209.46
2022-08-22T00:55:39.462Z,100212.32
2022-08-22T00:58:50.694Z,100212.75
2022-08-22T01:01:52.571Z,100215.71
2022-08-22T01:04:53.939Z,100210.77
2022-08-22T01:08:25.155Z,100212.48
2022-08-22T01:11:09.645Z,100213.70
2022-08-22T01:14:10.072Z,100210.84
2022-08-22T01:17:25.211Z,100211.77
2022-08-22T01:21:02.595Z,100213.21
2022-08-22T01:24:18.939Z,100215.46
2022-08-22T01:27:07.978Z,100213.98
2022-08-22T01:30:30.641Z,100212.34
2022-08-22T01:33:47.693Z,100212.17
2022-08-22T01:37:05.789Z,100209.65
2022-08-22T01:39:50.112Z,100210.55
2022-08-22T01:43:10.174Z,100208.52
2022-08-22T01:46:29.283Z,100206.44
2022-08-22T01:49:30.476Z,100210.59
2022-08-22T01:52:40.879Z,100209.65
2022-08-22T01:55:37.424Z,100205.01
2022-08-22T01:58:24.944Z,100209.10
2022-08-22T02:01:28.937Z,100211.66
2022-08-22T02:05:03.536Z,100205.52
2022-08-22T02:08:02.756Z,100207.09
2022-08-22T02:10:56.726Z,100208.35
2022-08-22T02:14:10.373Z,100209.86
2022-08-22T02:17:09.360Z,100211.63
2022-08-22T02:20:04.386Z,100214.14
2022-08-22T02:22:56.967Z,100219.80
2022-08-22T02:25:33.455Z,100222.13
2022-08-22T02:28:13.207Z,100217.41
2022-08-22T02:31:07.706Z,100217.45
2022-08-22T02:33:41.333Z,100217.37
2022-08-22T02:36:18.927Z,100218.55
2022-08-22T02:39:34.666Z,100217.23
2022-08-22T02:42:38.424Z,100218.11
2022-08-22T02:45:52.361Z,100220.36
2022-08-22T02:48:44.306Z,100222.11
2022-08-22T02:51:59.320Z,100223.23
2022-08-22T02:55:00.468Z,100216.74
2022-08-22T02:57:55.347Z,100221.17
2022-08-22T03:00:41.388Z,100221.17
2022-08-22T03:03:29.086Z,100220.44
2022-08-22T03:06:09.651Z,100219.45
2022-08-22T03:09:01.120Z,100216.24
2022-08-22T03:11:42.104Z,100212.84
2022-08-22T03:14:26.412Z,100212.63
2022-08-22T03:17:12.639Z,100216.19
2022-08-22T03:20:11.040Z,100210.90
2022-08-22T03:23:02.958Z,100207.78
2022-08-22T03:25:52.716Z,100207.83
2022-08-22T03:29:06.430Z,100206.94
2022-08-22T03:31:36.569Z,100210.85
2022-08-22T03:34:27.435Z,100213.44
2022-08-22T03:37:27.006Z,100218.10
2022-08-22T03:40:46.614Z,100218.59
2022-08-22T03:43:56.698Z,100222.26
2022-08-22T03:46:56.082Z,100224.34
2022-08-22T03:50:19.448Z,100227.30
2022-08-22T03:53:20.570Z,100223.41
2022-08-22T03:56:34.133Z,100225.01
2022-08-22T03:59:27.540Z,100223.67
2022-08-22T04:02:43.084Z,100225.05
2022-08-22T04:05:40.800Z,100229.69
2022-08-22T04:08:30.392Z,100225.58
2022-08-22T04:11:06.101Z,100229.19
2022-08-22T04:13:53.622Z,100234.86
2022-08-22T04:17:04.277Z,100236.26
2022-08-22T04:20:21.318Z,100236.67
2022-08-22T04:23:21.034Z,100236.23
2022-08-22T04:26:12.368Z,100234.02
2022-08-22T04:28:51.369Z,100233.89
2022-08-22T04:31:35.047Z,100234.46
2022-08-22T04:34:21.411Z,100234.87
2022-08-22T04:37:33.858Z,100236.92
2022-08-22T04:40:19.838Z,100239.67
2022-08-22T04:43:25.842Z,100242.29
2022-08-22T04:46:11.537Z,100244.67
2022-08-22T04:49:09.421Z,100244.46
2022-08-22T04:52:18.665Z,100251.12
2022-08-22T04:55:06.052Z,100249.48
2022-08-22T04:58:05.997Z,100250.95
2022-08-22T05:01:12.125Z,100255.62
2022-08-22T05:03:51.899Z,100257.92
2022-08-22T05:06:26.651Z,100260.23
2022-08-22T05:09:03.248Z,100259.89
2022-08-22T05:11:36.877Z,100261.90
2022-08-22T05:14:24.115Z,100264.77
2022-08-22T05:16:58.094Z,100269.14
2022-08-22T05:19:34.945Z,100267.77
2022-08-22T05:22:06.525Z,100269.27
2022-08-22T05:24:48.721Z,100270.71
2022-08-22T05:27:40.717Z,100275.27
2022-08-22T05:30:16.641Z,100278.26
2022-08-22T05:32:55.879Z,100279.77
2022-08-22T05:35:48.614Z,100282.75
2022-08-22T05:38:28.101Z,100284.02
2022-08-22T05:41:09.636Z,100290.13
2022-08-22T05:43:45.606Z,100292.05
2022-08-22T05:46:27.162Z,100292.84
2022-08-22T05:49:04.625Z,100292.80
2022-08-22T05:51:55.283Z,100293.34
2022-08-22T05:54:33.656Z,100294.45
2022-08-22T05:57:26.303Z,100296.26
2022-08-22T06:00:12.045Z,100300.42
2022-08-22T06:03:17.502Z,100301.57
2022-08-22T06:05:56.603Z,100299.67
2022-08-22T06:08:35.180Z,100297.95
2022-08-22T06:11:51.958Z,100297.42
2022-08-22T06:14:42.653Z,100294.47
2022-08-22T06:17:43.740Z,100296.31
2022-08-22T06:20:23.860Z,100301.77
2022-08-22T06:23:00.847Z,100300.01
2022-08-22T06:25:39.211Z,100298.61
2022-08-22T06:28:17.737Z,100294.05
2022-08-22T06:30:51.836Z,100296.95
2022-08-22T06:33:29.603Z,100292.43
2022-08-22T06:36:30.728Z,100291.89
2022-08-22T06:39:30.433Z,100289.77
2022-08-22T06:42:45.798Z,100297.36
2022-08-22T06:45:33.150Z,100302.85
2022-08-22T06:48:08.326Z,100304.52
2022-08-22T06:50:41.725Z,100309.15
2022-08-22T06:53:31.911Z,100313.83
2022-08-22T06:56:09.283Z,100324.24
2022-08-22T06:58:44.708Z,100329.13
2022-08-22T07:01:31.488Z,100328.20
2022-08-22T07:04:17.003Z,100329.14
2022-08-22T07:06:51.819Z,100333.73
2022-08-22T07:09:34.848Z,100334.52
2022-08-22T07:12:23.339Z,100334.67
2022-08-22T07:15:19.319Z,100333.31
2022-08-22T07:18:03.883Z,100336.58
2022-08-22T07:20:46.714Z,100336.73
2022-08-22T07:23:49.621Z,100340.42
2022-08-22T07:26:44.944Z,100338.06
2022-08-22T07:29:44.808Z,100342.88
2022-08-22T07:32:31.216Z,100346.35
2022-08-22T07:35:17.507Z,100346.63
2022-08-22T07:38:00.886Z,100344.66
2022-08-22T07:41:02.194Z,100347.23
2022-08-22T07:43:50.614Z,100348.30
2022-08-22T07:46:40.805Z,100351.88
2022-08-22T07:49:38.786Z,100347.92
2022-08-22T07:52:23.629Z,100351.08
2022-08-22T07:55:15.805Z,100351.13
2022-08-22T07:57:58.522Z,100352.77
2022-08-22T08:00:30.539Z,100356.09
2022-08-22T08:03:09.949Z,100356.90
2022-08-22T08:05:49.071Z,100355.04
2022-08-22T08:08:55.157Z,100351.40
2022-08-22T08:11:39.001Z,100352.72
2022-08-22T08:14:20.171Z,100355.33
2022-08-22T08:17:32.243Z,100356.29
2022-08-22T08:20:14.159Z,100355.94
2022-08-22T08:23:00.933Z,100354.96
2022-08-22T08:26:04.149Z,100352.89
2022-08-22T08:28:58.511Z,100347.71
2022-08-22T08:31:44.806Z,100348.39
2022-08-22T08:34:25.905Z,100351.48
2022-08-22T08:37:27.174Z,100351.80
2022-08-22T08:40:12.587Z,100355.29
2022-08-22T08:43:26.115Z,100355.56
2022-08-22T08:46:08.101Z,100354.77
2022-08-22T08:49:21.027Z,100353.03
2022-08-22T08:52:27.475Z,100351.98
2022-08-22T08:55:22.679Z,100349.14
2022-08-22T08:58:28.296Z,100341.16
2022-08-22T09:01:29.810Z,100337.80
2022-08-22T09:04:38.419Z,100334.74
2022-08-22T09:08:12.677Z,100336.23
2022-08-22T09:11:58.037Z,100346.40
2022-08-22T09:14:56.959Z,100348.27
2022-08-22T09:17:57.340Z,100345.08
2022-08-22T09:21:07.816Z,100350.98
2022-08-22T09:24:20.334Z,100347.77
2022-08-22T09:27:01.646Z,100347.75
2022-08-22T09:29:55.204Z,100347.92
2022-08-22T09:33:03.658Z,100348.08
2022-08-22T09:36:28.029Z,100341.30
2022-08-22T09:39:27.373Z,100341.72
2022-08-22T09:42:32.457Z,100341.48
2022-08-22T09:45:13.869Z,100343.10
2022-08-22T09:48:07.655Z,100345.48
2022-08-22T09:51:32.417Z,100346.41
2022-08-22T09:54:36.344Z,100344.27
2022-08-22T09:57:22.699Z,100345.89
2022-08-22T09:59:58.409Z,100345.60
2022-08-22T10:03:03.526Z,100347.63
2022-08-22T10:05:45.639Z,100343.42
2022-08-22T10:08:51.541Z,100345.02
2022-08-22T10:11:38.758Z,100341.86
2022-08-22T10:14:28.589Z,100343.23
2022-08-22T10:17:30.051Z,100343.95
2022-08-22T10:20:37.326Z,100344.55
2022-08-22T10:24:07.981Z,100343.83
2022-08-22T10:27:05.356Z,100344.73
2022-08-22T10:30:08.664Z,100344.10
2022-08-22T10:33:06.258Z,100349.45
2022-08-22T10:36:05.120Z,100350.06
2022-08-22T10:39:09.369Z,100350.09
2022-08-22T10:42:19.387Z,100350.40
2022-08-22T10:45:48.952Z,100348.07
2022-08-22T10:48:53.036Z,100349.45
2022-08-22T10:51:59.959Z,100347.20
2022-08-22T10:55:09.836Z,100346.11
2022-08-22T10:58:14.362Z,100344.34
2022-08-22T11:01:38.093Z,100344.82
2022-08-22T11:04:28.572Z,100345.05
2022-08-22T11:07:32.032Z,100345.41
2022-08-22T11:10:35.077Z,100350.02
2022-08-22T11:13:50.750Z,100349.59
2022-08-22T11:17:32.274Z,100347.03
2022-08-22T11:20:22.370Z,100350.70
2022-08-22T11:23:38.865Z,100352.69
2022-08-22T11:26:47.484Z,100356.60
2022-08-22T11:30:05.836Z,100359.01
2022-08-22T11:32:59.575Z,100365.82
2022-08-22T11:36:11.589Z,100365.48
2022-08-22T11:39:01.787Z,100363.66
2022-08-22T11:42:02.084Z,100367.85
2022-08-22T11:44:57.706Z,100367.58
2022-08-22T11:47:41.641Z,100363.20
2022-08-22T11:50:46.911Z,100367.97
2022-08-22T11:53:41.597Z,100375.58
2022-08-22T11:56:41.527Z,100376.92
2022-08-22T11:59:54.909Z,100374.58
2022-08-22T12:03:09.707Z,100369.40
2022-08-22T12:06:26.183Z,100366.11
2022-08-22T12:09:38.363Z,100362.31
2022-08-22T12:12:27.275Z,100364.40
2022-08-22T12:15:24.416Z,100362.86
2022-08-22T12:18:43.611Z,100368.47
2022-08-22T12:22:05.251Z,100362.68
2022-08-22T12:25:17.510Z,100356.27
2022-08-22T12:28:22.587Z,100351.61
2022-08-22T12:31:32.191Z,100349.69
2022-08-22T12:34:39.878Z,100352.30
2022-08-22T12:37:25.879Z,100353.47
2022-08-22T12:40:26.395Z,100349.27
2022-08-22T12:43:52.417Z,100348.78
2022-08-22T12:47:01.090Z,100345.85
2022-08-22T12:50:21.540Z,100342.33
2022-08-22T12:53:51.656Z,100336.10
2022-08-22T12:56:47.229Z,100336.80
2022-08-22T12:59:49.521Z,100338.78
2022-08-22T13:02:36.038Z,100335.35
2022-08-22T13:05:23.946Z,100333.98
2022-08-22T13:08:07.368Z,100329.88
2022-08-22T13:10:51.111Z,100325.55
2022-08-22T13:13:42.165Z,100324.30
2022-08-22T13:16:19.871Z,100325.91
2022-08-22T13:19:07.569Z,100328.58
2022-08-22T13:21:49.125Z,100322.72
2022-08-22T13:24:52.581Z,100321.09
2022-08-22T13:27:51.289Z,100323.05
2022-08-22T13:30:33.574Z,100326.80
2022-08-22T13:33:24.995Z,100323.35
2022-08-22T13:36:08.169Z,100321.61
2022-08-22T13:39:03.612Z,100319.89
2022-08-22T13:41:50.605Z,100322.88
2022-08-22T13:48:04.140Z,100322.77
2022-08-22T13:51:41.386Z,100323.17
2022-08-22T13:54:49.523Z,100327.42
2022-08-22T13:57:51.942Z,100328.48
2022-08-22T14:00:57.662Z,100329.73
2022-08-22T14:04:36.070Z,100334.33
2022-08-22T14:08:05.313Z,100327.67
2022-08-22T14:11:01.994Z,100329.48
2022-08-22T14:14:04.386Z,100332.02
2022-08-22T14:16:52.163Z,100328.56
2022-08-22T14:19:59.799Z,100326.48
2022-08-22T14:22:47.377Z,100323.95
2022-08-22T14:25:35.932Z,100324.17
2022-08-22T14:28:38.628Z,100321.66
2022-08-22T14:31:14.776Z,100323.65
2022-08-22T14:34:10.957Z,100320.48
2022-08-22T14:36:57.843Z,100318.84
2022-08-22T14:39:57.206Z,100312.09
2022-08-22T14:43:06.817Z,100306.70
2022-08-22T14:45:57.715Z,100305.91
2022-08-22T14:49:13.867Z,100310.88
2022-08-22T14:52:37.863Z,100311.55
2022-08-22T14:55:21.979Z,100311.52
2022-08-22T14:58:08.376Z,100315.34
2022-08-22T15:00:47.056Z,100311.59
2022-08-22T15:03:38.720Z,100310.52
2022-08-22T15:06:36.519Z,100312.83
2022-08-22T15:09:26.959Z,100309.79
2022-08-22T15:11:59.556Z,100311.73
2022-08-22T15:14:53.313Z,100310.98
2022-08-22T15:18:01.176Z,100313.43
2022-08-22T15:20:45.492Z,100314.13
2022-08-22T15:23:24.965Z,100312.14
2022-08-22T15:26:13.239Z,100309.74
2022-08-22T15:28:52.664Z,100310.53
2022-08-22T15:31:29.284Z,100310.02
2022-08-22T15:34:26.405Z,100314.05
2022-08-22T15:37:18.847Z,100307.32
2022-08-22T15:40:15.277Z,100304.81
2022-08-22T15:42:51.675Z,100304.31
2022-08-22T15:45:39.194Z,100300.94
2022-08-22T15:49:03.219Z,100299.21
2022-08-22T15:54:51.445Z,100296.84
2022-08-22T15:57:38.736Z,100293.42
2022-08-22T16:00:43.706Z,100298.54
2022-08-22T16:03:34.718Z,100296.70
2022-08-22T16:06:50.637Z,100298.34
2022-08-22T16:09:54.376Z,100296.84
2022-08-22T16:12:46.027Z,100299.08
2022-08-22T16:16:04.157Z,100300.46
2022-08-22T16:18:52.235Z,100301.70
2022-08-22T16:21:27.804Z,100305.23
2022-08-22T16:24:04.009Z,100299.25
2022-08-22T16:26:41.191Z,100296.52
2022-08-22T16:29:34.033Z,100298.55
2022-08-22T16:32:32.232Z,100301.14
2022-08-22T16:35:11.562Z,100305.61
2022-08-22T16:37:53.758Z,100311.70
2022-08-22T16:40:54.586Z,100316.47
2022-08-22T16:43:28.871Z,100315.77
2022-08-22T16:46:36.578Z,100321.26
2022-08-22T16:49:24.444Z,100319.98
2022-08-22T16:52:30.725Z,100318.84
2022-08-22T16:55:34.658Z,100319.60
2022-08-22T16:58:56.946Z,100318.17
2022-08-22T17:02:13.802Z,100319.29
2022-08-22T17:05:31.420Z,100322.34
2022-08-22T17:08:29.327Z,100327.98
2022-08-22T17:11:43.642Z,100332.86
2022-08-22T17:14:40.505Z,100336.14
2022-08-22T17:17:53.040Z,100333.83
2022-08-22T17:21:41.466Z,100331.38
2022-08-22T17:25:08.854Z,100333.88
2022-08-22T17:27:53.070Z,100329.86
2022-08-22T17:30:43.522Z,100332.52
2022-08-22T17:33:51.883Z,100331.91
2022-08-22T17:36:27.069Z,100335.77
2022-08-22T17:39:34.021Z,100335.95
2022-08-22T17:42:38.593Z,100331.27
2022-08-22T17:45:34.257Z,100330.52
2022-08-22T17:48:41.025Z,100330.04
2022-08-22T17:51:45.391Z,100328.30
2022-08-22T17:55:03.108Z,100325.91
2022-08-22T17:58:01.476Z,100328.70
2022-08-22T18:00:56.567Z,100333.27
2022-08-22T18:03:41.157Z,100336.17
2022-08-22T18:12:15.814Z,100339.73
2022-08-22T18:15:31.303Z,100344.46
2022-08-22T18:18:31.606Z,100351.02
2022-08-22T18:21:54.033Z,100351.96
2022-08-22T18:24:50.432Z,100353.69
2022-08-22T18:27:47.609Z,100351.48
2022-08-22T18:30:51.318Z,100352.29
2022-08-22T18:34:12.912Z,100358.48
2022-08-22T18:37:14.901Z,100363.72
2022-08-22T18:40:28.486Z,100364.77
2022-08-22T18:43:23.257Z,100364.01
2022-08-22T18:46:27.887Z,100363.84
2022-08-22T18:49:36.962Z,100364.56
2022-08-22T18:52:44.450Z,100367.05
2022-08-22T18:55:54.682Z,100367.70
2022-08-22T18:59:09.269Z,100369.23
2022-08-22T19:02:06.463Z,100370.66
2022-08-22T19:05:27.048Z,100374.67
2022-08-22T19:08:54.462Z,100376.02
2022-08-22T19:12:13.707Z,100380.18
2022-08-22T19:15:40.584Z,100377.88
2022-08-22T19:18:52.962Z,100379.42
2022-08-22T19:21:56.673Z,100376.41
2022-08-22T19:25:01.986Z,100378.27
2022-08-22T19:28:20.550Z,100376.98
2022-08-22T19:31:21.700Z,100373.28
2022-08-22T19:34:29.530Z,100375.12
2022-08-22T19:37:30.675Z,100379.43
2022-08-22T19:40:58.362Z,100384.26
2022-08-22T19:43:41.324Z,100381.23
2022-08-22T19:46:37.272Z,100379.20
2022-08-22T19:50:02.219Z,100378.59
2022-08-22T19:52:57.210Z,100376.81
2022-08-22T19:55:39.303Z,100381.34
2022-08-22T19:58:54.806Z,100379.39
2022-08-22T20:02:01.347Z,100372.98
2022-08-22T20:05:14.976Z,100366.16
2022-08-22T20:08:44.979Z,100359.20
2022-08-22T20:46:59.426Z,100356.34
2022-08-22T20:50:11.243Z,100352.81
2022-08-22T20:52:51.842Z,100349.09
2022-08-22T20:55:57.725Z,100343.62
2022-08-22T20:59:15.238Z,100337.69
2022-08-22T21:02:54.397Z,100330.74
2022-08-22T21:14:01.636Z,100320.31
2022-08-22T21:25:21.103Z,100321.31
2022-08-22T21:29:37.557Z,100314.84
2022-08-22T21:32:55.527Z,100310.38
2022-08-22T21:36:42.633Z,100306.02
2022-08-22T21:40:14.498Z,100301.40
2022-08-22T21:43:37.985Z,100302.38
2022-08-22T21:46:45.846Z,100306.02
2022-08-22T21:49:34.241Z,100302.75
2022-08-22T21:52:11.376Z,100298.39
2022-08-22T21:54:44.722Z,100297.65
2022-08-22T21:58:03.342Z,100297.48
2022-08-22T22:05:12.930Z,100287.92
2022-08-22T22:08:23.695Z,100289.19
2022-08-22T22:12:08.240Z,100291.91
2022-08-22T22:15:43.344Z,100294.02
2022-08-22T22:30:10.390Z,100298.34
2022-08-22T22:33:32.296Z,100298.41
2022-08-22T22:37:01.550Z,100300.85
2022-08-22T22:40:35.613Z,100307.16
2022-08-22T22:44:09.088Z,100304.20
2022-08-22T22:47:43.504Z,100306.35
2022-08-22T22:51:38.174Z,100300.25
2022-08-22T22:54:47.385Z,100299.77
2022-08-22T22:58:30.600Z,100291.63
2022-08-22T23:03:08.701Z,100288.27
2022-08-22T23:07:00.354Z,100282.92
2022-08-22T23:14:49.488Z,100277.84
2022-08-22T23:17:56.767Z,100276.55
2022-08-22T23:21:07.050Z,100270.82
2022-08-22T23:24:46.309Z,100266.42
2022-08-22T23:28:37.330Z,100269.39
2022-08-22T23:32:14.000Z,100270.27
2022-08-22T23:38:56.471Z,100269.08
2022-08-22T23:42:10.349Z,100269.08
2022-08-22T23:45:27.379Z,100273.50
2022-08-22T23:48:56.225Z,100280.23
2022-08-22T23:52:45.536Z,100277.11
2022-08-22T23:56:49.765Z,100280.77
